Portada
METAR-TAF:

METAR-TAF

Aeropuertos :

Ezeiza, Argentina

Aeropuerto Internacional Ministro Pistarini

latitud: 34-49S, longitud: 058-32W, altitud: 20 m

Observación

El informe se hizo hace 1 hora y 0 minutos, a las 07:00 UTC
Viento 2 kt del oeste
Temperatura 6°C
Humedad 75%
Presión 1019 hPa
Visibilidad 10 km o más
sin nubes por debajo de 1500 m y sin presencia de cumulonimbus.

METAR: SAEZ 200700Z 26002KT CAVOK 06/02 Q1019

Hora: 05:00 (08:00 UTC)

Pronóstico

El informe se hizo hace 3 horas y 0 minutos, a las 05:00 UTC
Pronóstico válido del 20 a las 06 UTC al 21 a las 06 UTC
Viento 6 kt del oeste-suroeste
Visibilidad 10 km o más
sin nubes por debajo de 1500 m y sin presencia de cumulonimbus.
Evolucionando progresivamente
del 20 a las 22 UTC al 20 a las 24 UTC
Viento 3 kt con dirección variable

TAF: SAEZ 200500Z 2006/2106 24006KT CAVOK TX16/2018Z TN06/2010Z BECMG 2022/2024 VRB03KT

Observaciones y pronósticos meteorológicos de más de 4000 aeropuertos (mensajes METAR y TAF).

Los puntos amarillos y rojos representan las estaciones disponibles.

Ponga el ratón en el punto deseado para ver el nombre de la estación.

Haga clic para ver las observaciones y los pronósticos meteorológicos.

Para cambiar el mapa : haga clic en los botones verdes con una cruz de color negro para hacer un zoom, en el botón verde con un guión para alejar o en las flechas verdes para mapas adyacentes.


METAR-TAF: